Time;durP1;ratioP1;P1;durP2;ratioP2;P2;SDS_P1;SDS_P2;PMS_P1;PMS_P2;Temp;Humidity;BMP_temperature;BMP_pressure;BME280_temperature;BME280_humidity;BME280_pressure;Samples;Min_cycle;Max_cycle;Signal;HPM_P1;HPM_P2
2023/01/27 00:01:06;;;;;;;21.98;13.05;;;3.00;73.20;;;;;;6186518;23;20173;-86
2023/01/27 00:03:34;;;;;;;23.05;11.90;;;2.90;73.20;;;;;;6223960;23;20230;-87
2023/01/27 00:06:05;;;;;;;23.65;12.95;;;2.90;73.10;;;;;;6223068;23;20233;-86
2023/01/27 00:08:33;;;;;;;25.15;13.40;;;2.80;73.00;;;;;;6223602;23;20498;-86
2023/01/27 00:13:47;;;;;;;49.85;20.95;;;2.70;73.10;;;;;;6225372;23;20160;-85
2023/01/27 00:16:16;;;;;;;22.45;12.93;;;2.60;73.20;;;;;;6224871;23;20173;-87
2023/01/27 00:18:44;;;;;;;41.55;21.05;;;2.60;73.20;;;;;;6189557;23;20204;-85
2023/01/27 00:26:43;;;;;;;41.47;18.95;;;2.50;73.40;;;;;;6187023;23;20177;-86
2023/01/27 00:29:20;;;;;;;37.88;17.73;;;2.50;73.50;;;;;;6184350;23;20543;-87
2023/01/27 00:34:34;;;;;;;28.98;14.60;;;2.40;73.50;;;;;;6184830;23;20179;-86
2023/01/27 00:37:04;;;;;;;27.75;13.75;;;2.40;73.70;;;;;;6184084;23;20176;-85
2023/01/27 00:39:33;;;;;;;39.38;18.08;;;2.40;73.90;;;;;;6183930;23;20199;-87
2023/01/27 00:42:01;;;;;;;24.17;12.55;;;2.40;73.90;;;;;;6184133;23;20176;-87
2023/01/27 00:44:29;;;;;;;34.88;17.40;;;2.40;73.90;;;;;;6185040;23;20627;-85
2023/01/27 00:46:58;;;;;;;24.55;13.13;;;2.50;74.00;;;;;;6183725;23;20627;-85
2023/01/27 00:49:26;;;;;;;27.30;14.25;;;2.50;74.10;;;;;;6220787;23;20197;-87
2023/01/27 00:51:54;;;;;;;46.33;22.73;;;2.50;74.10;;;;;;6183847;23;20195;-87
2023/01/27 00:54:22;;;;;;;38.60;19.83;;;2.60;74.10;;;;;;6184172;23;20181;-86
2023/01/27 00:56:50;;;;;;;23.48;12.65;;;2.60;74.10;;;;;;6184195;23;20187;-86
2023/01/27 00:59:18;;;;;;;49.13;25.15;;;2.50;74.00;;;;;;6221033;23;20198;-86
2023/01/27 01:01:46;;;;;;;26.50;14.23;;;2.50;74.10;;;;;;6185728;23;20502;-86
2023/01/27 01:04:15;;;;;;;20.38;11.40;;;2.50;74.10;;;;;;6184040;23;20176;-86
2023/01/27 01:06:46;;;;;;;17.35;9.80;;;2.50;74.10;;;;;;6183680;23;20508;-86
2023/01/27 01:09:14;;;;;;;18.33;10.32;;;2.50;74.20;;;;;;6184322;23;20196;-86
2023/01/27 01:11:42;;;;;;;30.05;17.75;;;2.50;74.20;;;;;;6219532;23;20192;-86
2023/01/27 01:14:10;;;;;;;30.10;15.75;;;2.50;74.30;;;;;;6184118;23;20549;-84
2023/01/27 01:16:38;;;;;;;31.25;16.95;;;2.50;74.30;;;;;;6220589;23;20172;-85
2023/01/27 01:19:06;;;;;;;24.67;13.48;;;2.50;74.30;;;;;;6185005;23;20691;-85
2023/01/27 01:21:37;;;;;;;29.27;15.25;;;2.40;74.30;;;;;;6186232;23;20192;-86
2023/01/27 01:24:07;;;;;;;28.50;14.85;;;2.40;74.50;;;;;;6185971;23;20176;-86
2023/01/27 01:26:35;;;;;;;23.48;11.95;;;2.40;74.50;;;;;;6186226;23;20215;-86
2023/01/27 01:29:03;;;;;;;27.40;14.23;;;2.40;74.50;;;;;;6186866;23;20206;-87
2023/01/27 01:31:31;;;;;;;19.73;10.85;;;2.40;74.50;;;;;;6187770;23;20678;-85
2023/01/27 01:33:59;;;;;;;23.02;13.70;;;2.40;74.60;;;;;;6187858;23;20211;-86
2023/01/27 01:36:28;;;;;;;20.08;13.00;;;2.50;74.60;;;;;;6187671;23;20181;-87
2023/01/27 01:38:58;;;;;;;19.27;11.43;;;2.50;74.60;;;;;;6226230;23;20192;-86
2023/01/27 01:41:26;;;;;;;19.17;10.73;;;2.50;74.60;;;;;;6235784;23;20168;-86
2023/01/27 01:43:55;;;;;;;23.55;11.30;;;2.50;74.70;;;;;;6190375;23;20172;-88
2023/01/27 01:46:23;;;;;;;20.00;11.10;;;2.50;74.80;;;;;;6189943;23;20260;-87
2023/01/27 01:48:54;;;;;;;21.60;10.25;;;2.50;74.70;;;;;;6187627;23;20208;-87
2023/01/27 01:51:28;;;;;;;19.38;10.35;;;2.50;74.70;;;;;;6188523;23;20192;-87
2023/01/27 01:54:05;;;;;;;16.60;9.82;;;2.50;74.70;;;;;;6188919;23;20176;-87
2023/01/27 01:56:38;;;;;;;18.90;9.88;;;2.40;74.70;;;;;;6189430;23;20180;-87
2023/01/27 01:59:11;;;;;;;17.40;9.00;;;2.40;74.80;;;;;;6191181;23;20200;-86
2023/01/27 02:01:41;;;;;;;22.90;11.90;;;2.40;74.90;;;;;;6190133;23;20183;-85
2023/01/27 02:04:14;;;;;;;21.60;11.25;;;2.50;74.90;;;;;;6190511;23;20571;-85
2023/01/27 02:06:48;;;;;;;19.10;9.57;;;2.40;74.90;;;;;;6190477;23;20184;-85
2023/01/27 02:09:20;;;;;;;17.17;10.30;;;2.40;74.90;;;;;;6188972;23;20205;-87
2023/01/27 02:11:48;;;;;;;18.80;10.60;;;2.40;74.90;;;;;;6187662;23;20197;-86
2023/01/27 02:14:18;;;;;;;21.13;10.77;;;2.40;74.90;;;;;;6187956;23;20182;-86
2023/01/27 02:16:46;;;;;;;13.98;8.77;;;2.40;75.00;;;;;;6186837;23;20188;-85
2023/01/27 02:19:21;;;;;;;16.38;9.95;;;2.40;75.00;;;;;;6223503;23;20367;-86
2023/01/27 02:21:52;;;;;;;18.65;10.02;;;2.40;75.00;;;;;;6186287;23;20225;-86
2023/01/27 02:24:25;;;;;;;16.85;9.70;;;2.40;75.00;;;;;;6185614;23;20196;-87
2023/01/27 02:26:54;;;;;;;20.60;9.82;;;2.30;75.10;;;;;;6184462;23;20218;-86
2023/01/27 02:29:23;;;;;;;17.70;10.05;;;2.30;75.00;;;;;;6231505;23;20192;-86
2023/01/27 02:31:51;;;;;;;21.10;11.50;;;2.30;75.00;;;;;;6182368;23;20271;-84
2023/01/27 02:34:22;;;;;;;19.33;11.55;;;2.30;75.10;;;;;;6183538;23;20177;-85
2023/01/27 02:36:55;;;;;;;16.52;9.30;;;2.30;75.20;;;;;;6183535;23;20253;-86
2023/01/27 02:39:27;;;;;;;14.93;9.15;;;2.30;75.20;;;;;;6183140;23;20202;-85
2023/01/27 02:41:58;;;;;;;17.15;10.23;;;2.30;75.40;;;;;;6183046;23;20265;-87
2023/01/27 02:44:26;;;;;;;16.58;9.43;;;2.40;75.40;;;;;;6183648;23;20234;-87
2023/01/27 02:46:54;;;;;;;17.17;9.32;;;2.30;75.10;;;;;;6183226;23;20200;-85
2023/01/27 02:49:22;;;;;;;18.02;9.45;;;2.30;75.10;;;;;;6183935;23;20586;-85
2023/01/27 02:51:50;;;;;;;18.60;10.43;;;2.30;75.10;;;;;;6182325;23;20201;-86
2023/01/27 02:54:18;;;;;;;16.85;9.82;;;2.20;75.20;;;;;;6183691;23;20192;-87
2023/01/27 02:56:46;;;;;;;15.80;9.38;;;2.20;75.30;;;;;;6182237;23;20263;-86
2023/01/27 02:59:17;;;;;;;18.92;9.80;;;2.20;75.30;;;;;;6183357;23;20223;-85
2023/01/27 03:01:47;;;;;;;17.92;9.65;;;2.20;75.30;;;;;;6181984;23;20175;-85
2023/01/27 03:04:16;;;;;;;17.65;9.05;;;2.20;75.30;;;;;;6219962;23;20171;-86
2023/01/27 03:06:44;;;;;;;20.23;11.63;;;2.20;75.40;;;;;;6182462;23;20234;-85
2023/01/27 03:09:12;;;;;;;17.50;8.80;;;2.20;75.50;;;;;;6218420;23;20208;-87
2023/01/27 03:19:59;;;;;;;14.73;8.90;;;2.20;75.40;;;;;;6181829;23;20207;-85
2023/01/27 03:22:27;;;;;;;15.73;9.25;;;2.20;75.40;;;;;;6182086;23;20611;-84
2023/01/27 03:24:55;;;;;;;15.63;9.02;;;2.10;75.30;;;;;;6181939;23;20270;-86
2023/01/27 03:27:24;;;;;;;13.23;8.25;;;2.10;75.40;;;;;;6182289;23;20191;-85
2023/01/27 03:30:16;;;;;;;16.73;9.65;;;2.10;75.40;;;;;;6194631;23;20207;-85
2023/01/27 03:32:53;;;;;;;15.63;9.50;;;2.10;75.50;;;;;;6182326;23;20195;-85
2023/01/27 03:47:12;;;;;;;15.15;9.05;;;2.10;75.50;;;;;;6181241;23;20176;-87
2023/01/27 03:49:40;;;;;;;19.17;9.70;;;2.10;75.50;;;;;;6180883;23;20234;-87
2023/01/27 03:52:08;;;;;;;18.50;10.30;;;2.10;75.50;;;;;;6181052;23;20177;-86
2023/01/27 03:54:37;;;;;;;16.90;9.23;;;2.10;75.50;;;;;;6181023;23;20211;-87
2023/01/27 03:57:05;;;;;;;13.82;8.30;;;2.10;75.60;;;;;;6179175;23;20181;-86
2023/01/27 03:59:34;;;;;;;15.13;8.50;;;2.10;75.50;;;;;;6180529;23;20196;-84
2023/01/27 04:07:36;;;;;;;13.20;8.18;;;2.10;75.40;;;;;;6179829;23;20176;-86
2023/01/27 04:10:05;;;;;;;13.57;8.70;;;2.00;75.40;;;;;;6181423;23;20696;-87
2023/01/27 04:12:32;;;;;;;15.20;7.22;;;2.00;75.30;;;;;;6179350;23;20195;-86
2023/01/27 04:15:00;;;;;;;12.75;7.00;;;2.00;75.40;;;;;;6219007;23;20172;-87
2023/01/27 04:17:29;;;;;;;14.77;8.90;;;1.90;75.50;;;;;;6180551;23;20263;-88
2023/01/27 04:19:59;;;;;;;16.70;8.75;;;2.00;75.60;;;;;;6218718;23;20254;-87
2023/01/27 04:22:27;;;;;;;13.13;7.45;;;2.00;75.60;;;;;;6217245;23;20185;-86
2023/01/27 04:24:55;;;;;;;14.77;8.25;;;2.00;75.70;;;;;;6181071;23;20836;-85
2023/01/27 04:27:23;;;;;;;18.38;9.52;;;2.10;75.70;;;;;;6181761;23;20649;-85
2023/01/27 04:29:51;;;;;;;15.48;8.27;;;2.10;75.40;;;;;;6192538;23;20598;-85
2023/01/27 04:32:19;;;;;;;13.05;7.03;;;2.00;75.40;;;;;;6186722;23;20187;-84
2023/01/27 04:34:47;;;;;;;12.55;7.25;;;2.00;75.50;;;;;;6221309;23;20621;-86
2023/01/27 04:37:16;;;;;;;18.50;10.15;;;2.00;75.50;;;;;;6186660;23;20180;-85
2023/01/27 04:39:46;;;;;;;13.88;7.80;;;2.00;75.50;;;;;;6182673;23;20666;-86
2023/01/27 04:42:14;;;;;;;16.52;9.93;;;2.00;75.50;;;;;;6190830;23;20182;-86
2023/01/27 04:44:42;;;;;;;13.60;7.50;;;2.10;75.60;;;;;;6189330;23;20635;-87
2023/01/27 04:47:10;;;;;;;15.98;8.98;;;2.00;75.60;;;;;;6196246;23;20182;-85
2023/01/27 04:49:38;;;;;;;16.60;8.75;;;2.10;75.60;;;;;;6187647;23;20196;-85
2023/01/27 04:52:06;;;;;;;12.55;8.07;;;2.10;75.60;;;;;;6188632;23;20245;-86
2023/01/27 04:54:36;;;;;;;14.88;9.35;;;2.10;75.70;;;;;;6186899;23;20197;-85
2023/01/27 04:57:04;;;;;;;14.77;8.50;;;2.10;75.50;;;;;;6186284;23;20714;-86
2023/01/27 04:59:32;;;;;;;15.35;7.63;;;2.10;75.50;;;;;;6187436;23;20200;-85
2023/01/27 05:02:00;;;;;;;14.02;8.52;;;2.10;75.60;;;;;;6183426;23;20176;-86
2023/01/27 05:04:28;;;;;;;20.30;11.00;;;2.10;75.60;;;;;;6184623;23;20172;-85
2023/01/27 05:06:56;;;;;;;15.40;9.90;;;2.00;75.40;;;;;;6186803;23;20192;-85
2023/01/27 05:09:25;;;;;;;16.00;10.05;;;2.00;75.40;;;;;;6184388;23;20208;-85
2023/01/27 05:11:54;;;;;;;10.52;7.13;;;2.00;75.50;;;;;;6186268;23;20199;-85
2023/01/27 05:14:23;;;;;;;10.10;6.68;;;2.00;75.60;;;;;;6190619;23;20219;-85
2023/01/27 05:16:51;;;;;;;18.98;11.32;;;2.00;75.60;;;;;;6184715;23;20186;-85
2023/01/27 05:19:19;;;;;;;12.77;7.22;;;2.00;75.60;;;;;;6190456;23;20207;-86
2023/01/27 05:21:47;;;;;;;11.13;6.80;;;2.00;75.70;;;;;;6185953;23;20174;-85
2023/01/27 05:24:16;;;;;;;14.55;8.10;;;2.00;75.60;;;;;;6186493;23;20242;-85
2023/01/27 05:26:44;;;;;;;13.80;8.68;;;2.00;75.60;;;;;;6186434;23;20180;-86
2023/01/27 05:29:13;;;;;;;11.75;7.13;;;2.10;75.70;;;;;;6184607;23;20218;-86
2023/01/27 05:31:41;;;;;;;14.00;9.05;;;2.10;75.70;;;;;;6186777;23;20218;-84
2023/01/27 05:34:09;;;;;;;19.55;10.50;;;2.10;75.80;;;;;;6184972;23;20185;-85
2023/01/27 05:36:37;;;;;;;28.73;15.63;;;2.20;75.80;;;;;;6185745;23;20184;-85
2023/01/27 05:39:06;;;;;;;29.25;15.43;;;2.20;75.80;;;;;;6223345;23;20188;-84
2023/01/27 05:41:36;;;;;;;22.90;12.45;;;2.20;75.70;;;;;;6194179;23;20173;-85
2023/01/27 05:44:05;;;;;;;23.60;12.63;;;2.30;75.70;;;;;;6196315;23;20196;-86
2023/01/27 05:46:37;;;;;;;23.23;11.77;;;2.30;75.60;;;;;;6198430;23;20180;-85
2023/01/27 05:49:06;;;;;;;15.05;8.75;;;2.30;75.60;;;;;;6234104;23;20192;-85
2023/01/27 05:51:36;;;;;;;12.30;8.15;;;2.30;75.50;;;;;;6196558;23;20180;-84
2023/01/27 05:54:04;;;;;;;14.77;8.50;;;2.30;75.60;;;;;;6197724;23;20189;-85
2023/01/27 05:56:32;;;;;;;12.15;7.90;;;2.30;75.60;;;;;;6199796;23;20235;-84
2023/01/27 05:59:01;;;;;;;21.73;13.05;;;2.30;75.60;;;;;;6199394;23;20196;-86
2023/01/27 06:01:31;;;;;;;17.63;9.23;;;2.30;75.60;;;;;;6235573;23;20168;-85
2023/01/27 06:04:01;;;;;;;21.17;12.18;;;2.30;75.50;;;;;;6234235;23;20177;-84
2023/01/27 06:06:31;;;;;;;22.35;13.35;;;2.20;75.40;;;;;;6222283;23;20613;-84
2023/01/27 06:09:00;;;;;;;16.52;10.27;;;2.20;75.50;;;;;;6197159;23;20696;-85
2023/01/27 06:11:28;;;;;;;16.95;10.48;;;2.20;75.70;;;;;;6198131;23;20200;-85
2023/01/27 06:13:56;;;;;;;15.30;10.05;;;2.20;75.70;;;;;;6200271;23;20207;-84
2023/01/27 06:16:25;;;;;;;15.80;9.90;;;2.20;75.60;;;;;;6197046;23;20191;-85
2023/01/27 06:18:53;;;;;;;19.23;10.77;;;2.20;75.60;;;;;;6200768;23;20211;-84
2023/01/27 06:21:22;;;;;;;17.35;8.80;;;2.20;75.70;;;;;;6201000;23;20210;-84
2023/01/27 06:23:52;;;;;;;31.15;16.23;;;2.20;75.70;;;;;;6200087;23;20168;-84
2023/01/27 06:26:20;;;;;;;15.88;9.40;;;2.20;75.60;;;;;;6195610;23;20231;-84
2023/01/27 06:28:48;;;;;;;19.33;10.35;;;2.20;75.70;;;;;;6199258;23;20283;-83
2023/01/27 06:31:18;;;;;;;16.98;10.45;;;2.20;75.70;;;;;;6201155;23;20184;-85
2023/01/27 06:33:46;;;;;;;20.65;12.00;;;2.30;75.70;;;;;;6199397;23;20196;-84
2023/01/27 06:36:16;;;;;;;24.67;12.82;;;2.30;75.70;;;;;;6196777;23;20198;-85
2023/01/27 06:38:45;;;;;;;19.95;11.13;;;2.30;75.80;;;;;;6200960;23;20178;-84
2023/01/27 06:41:14;;;;;;;18.60;10.32;;;2.30;75.80;;;;;;6201091;23;20196;-84
2023/01/27 06:43:42;;;;;;;14.45;9.27;;;2.40;75.80;;;;;;6200428;23;20176;-83
2023/01/27 06:46:10;;;;;;;23.30;12.05;;;2.40;75.70;;;;;;6201598;23;20391;-84
2023/01/27 06:48:38;;;;;;;23.77;13.15;;;2.40;75.70;;;;;;6226458;23;20580;-85
2023/01/27 06:51:06;;;;;;;21.85;12.02;;;2.40;75.80;;;;;;6183584;23;20743;-84
2023/01/27 06:53:51;;;;;;;19.45;11.85;;;2.40;75.80;;;;;;6222251;23;20160;-83
2023/01/27 06:56:19;;;;;;;13.88;9.00;;;2.40;75.70;;;;;;6180796;23;20186;-85
2023/01/27 06:58:47;;;;;;;18.15;10.23;;;2.40;75.60;;;;;;6217150;23;20248;-84
2023/01/27 07:01:15;;;;;;;15.68;9.57;;;2.40;75.70;;;;;;6218319;23;20573;-84
2023/01/27 07:03:43;;;;;;;15.85;10.20;;;2.40;75.70;;;;;;6181353;23;20185;-84
2023/01/27 07:06:15;;;;;;;18.70;10.85;;;2.40;75.80;;;;;;6182287;23;20184;-84
2023/01/27 07:08:44;;;;;;;19.23;10.50;;;2.40;75.70;;;;;;6180922;23;20168;-85
2023/01/27 07:11:14;;;;;;;13.32;9.63;;;2.50;75.80;;;;;;6182272;23;20729;-84
2023/01/27 07:13:42;;;;;;;15.57;9.05;;;2.50;75.60;;;;;;6217636;23;20172;-85
2023/01/27 07:16:10;;;;;;;14.52;8.98;;;2.50;75.60;;;;;;6180896;23;20205;-84
2023/01/27 07:18:38;;;;;;;21.02;9.07;;;2.50;75.70;;;;;;6181790;23;20192;-83
2023/01/27 07:21:06;;;;;;;16.85;10.57;;;2.50;75.80;;;;;;6218972;23;20168;-84
2023/01/27 07:23:35;;;;;;;49.67;19.45;;;2.50;75.80;;;;;;6181450;23;20193;-84
2023/01/27 07:26:03;;;;;;;34.97;14.93;;;2.60;75.80;;;;;;6217641;23;20203;-85
2023/01/27 07:28:40;;;;;;;21.15;11.40;;;2.60;75.60;;;;;;6180687;23;20184;-85
2023/01/27 07:31:08;;;;;;;16.70;9.18;;;2.60;75.60;;;;;;6181578;23;20184;-85
2023/01/27 07:33:37;;;;;;;18.20;9.43;;;2.60;75.60;;;;;;6182550;23;20234;-84
2023/01/27 07:36:05;;;;;;;23.35;11.55;;;2.60;75.60;;;;;;6182195;23;20195;-85
2023/01/27 07:38:33;;;;;;;19.75;10.55;;;2.60;75.50;;;;;;6218283;23;20175;-85
2023/01/27 07:41:04;;;;;;;13.38;8.30;;;2.60;75.60;;;;;;6219019;23;20171;-86
2023/01/27 07:43:33;;;;;;;40.58;15.88;;;2.60;75.60;;;;;;6181689;23;20256;-85
2023/01/27 07:46:07;;;;;;;27.30;10.95;;;2.60;75.40;;;;;;6181981;23;20639;-85
2023/01/27 07:48:36;;;;;;;38.10;13.88;;;2.50;75.40;;;;;;6218412;23;20231;-85
2023/01/27 07:51:04;;;;;;;25.50;11.75;;;2.50;75.50;;;;;;6219356;23;20630;-84
2023/01/27 07:53:32;;;;;;;26.20;11.68;;;2.50;75.40;;;;;;6181989;23;20529;-85
2023/01/27 07:56:00;;;;;;;26.23;12.63;;;2.40;75.50;;;;;;6182787;23;20859;-85
2023/01/27 07:58:28;;;;;;;17.92;9.18;;;2.40;75.60;;;;;;6182054;23;20200;-84
2023/01/27 08:00:56;;;;;;;15.95;9.90;;;2.40;75.70;;;;;;6182260;23;20715;-85
2023/01/27 08:03:26;;;;;;;21.73;11.65;;;2.40;75.70;;;;;;6184938;23;20459;-84
2023/01/27 08:05:54;;;;;;;38.53;19.15;;;2.40;75.70;;;;;;6190665;23;20549;-85
2023/01/27 08:08:22;;;;;;;55.28;23.00;;;2.40;75.70;;;;;;6218278;23;20172;-84
2023/01/27 08:10:50;;;;;;;41.75;17.52;;;2.40;75.70;;;;;;6180972;23;20215;-85
2023/01/27 08:13:18;;;;;;;40.88;16.35;;;2.50;75.80;;;;;;6180754;23;20185;-85
2023/01/27 08:15:46;;;;;;;26.90;14.85;;;2.50;75.80;;;;;;6179831;23;20589;-85
2023/01/27 08:18:14;;;;;;;26.38;14.32;;;2.50;75.90;;;;;;6180601;23;20183;-85
2023/01/27 08:20:44;;;;;;;29.42;16.92;;;2.60;75.90;;;;;;6182316;23;20202;-85
2023/01/27 08:23:13;;;;;;;24.23;13.20;;;2.60;75.80;;;;;;6181751;23;20168;-85
2023/01/27 08:25:41;;;;;;;17.70;9.93;;;2.60;75.70;;;;;;6219158;23;20175;-83
2023/01/27 08:28:09;;;;;;;32.13;14.32;;;2.60;75.80;;;;;;6181201;23;20181;-84
2023/01/27 08:30:37;;;;;;;19.48;10.18;;;2.60;75.80;;;;;;6181806;23;20204;-84
2023/01/27 08:33:05;;;;;;;27.85;12.70;;;2.60;75.70;;;;;;6182760;23;20184;-83
2023/01/27 08:35:35;;;;;;;18.33;10.70;;;2.60;75.60;;;;;;6183618;23;20199;-84
2023/01/27 08:38:05;;;;;;;29.00;14.45;;;2.50;75.70;;;;;;6220528;23;20165;-83
2023/01/27 08:40:33;;;;;;;23.75;12.57;;;2.50;75.70;;;;;;6219861;23;20196;-84
2023/01/27 08:43:01;;;;;;;19.65;14.13;;;2.50;75.50;;;;;;6183599;23;20272;-84
2023/01/27 08:45:32;;;;;;;19.50;11.65;;;2.40;75.60;;;;;;6182887;23;20199;-84
2023/01/27 08:48:00;;;;;;;24.20;12.38;;;2.40;75.80;;;;;;6183286;23;20866;-84
2023/01/27 08:50:29;;;;;;;33.17;16.80;;;2.40;75.90;;;;;;6183189;23;20263;-84
2023/01/27 08:52:58;;;;;;;15.30;10.30;;;2.40;75.80;;;;;;6220199;23;20168;-84
2023/01/27 08:55:27;;;;;;;39.15;26.27;;;2.40;75.80;;;;;;6183297;23;20655;-84
2023/01/27 08:57:56;;;;;;;18.70;13.38;;;2.40;75.90;;;;;;6219754;23;20182;-84
2023/01/27 09:00:24;;;;;;;21.33;16.08;;;2.30;75.90;;;;;;6183513;23;20690;-84
2023/01/27 09:02:52;;;;;;;19.85;12.00;;;2.30;75.90;;;;;;6183090;23;20272;-83
2023/01/27 09:05:21;;;;;;;14.02;8.30;;;2.30;76.00;;;;;;6220585;23;20164;-84
2023/01/27 09:07:50;;;;;;;14.10;8.38;;;2.30;76.10;;;;;;6182495;23;20176;-84
2023/01/27 09:10:18;;;;;;;14.63;8.15;;;2.40;76.20;;;;;;6183278;23;20200;-84
2023/01/27 09:12:47;;;;;;;13.70;7.85;;;2.40;76.20;;;;;;6219234;23;20200;-84
2023/01/27 09:15:16;;;;;;;14.80;8.32;;;2.50;76.10;;;;;;6184604;23;20207;-84
2023/01/27 09:17:44;;;;;;;14.40;8.50;;;2.50;76.00;;;;;;6183888;23;20180;-84
2023/01/27 09:20:12;;;;;;;18.20;12.57;;;2.50;76.10;;;;;;6221721;23;20960;-84
2023/01/27 09:22:41;;;;;;;26.05;18.05;;;2.60;76.10;;;;;;6220615;23;20191;-84
2023/01/27 09:25:17;;;;;;;14.50;8.90;;;2.60;76.00;;;;;;6185632;23;20181;-86
2023/01/27 09:27:45;;;;;;;12.35;8.35;;;2.60;76.00;;;;;;6182803;23;20565;-83
2023/01/27 09:30:16;;;;;;;14.93;9.35;;;2.60;75.90;;;;;;6221062;23;20279;-83
2023/01/27 09:32:44;;;;;;;14.82;9.20;;;2.50;75.90;;;;;;6183453;23;20175;-83
2023/01/27 09:35:12;;;;;;;15.93;10.27;;;2.50;76.00;;;;;;6183235;23;20286;-84
2023/01/27 09:37:44;;;;;;;19.08;13.15;;;2.60;76.10;;;;;;6183200;23;20180;-83
2023/01/27 09:40:20;;;;;;;13.65;8.95;;;2.60;76.20;;;;;;6183883;23;20192;-83
2023/01/27 09:43:08;;;;;;;15.55;8.75;;;2.70;76.20;;;;;;6183118;23;20164;-84
2023/01/27 09:45:51;;;;;;;11.30;7.97;;;2.70;76.20;;;;;;6184012;23;20168;-83
2023/01/27 09:48:44;;;;;;;13.57;7.57;;;2.70;76.10;;;;;;6183127;23;20181;-84
2023/01/27 09:51:20;;;;;;;14.50;7.65;;;2.70;76.10;;;;;;6184540;23;20171;-83
2023/01/27 09:54:15;;;;;;;15.68;8.20;;;2.70;75.80;;;;;;6183814;23;20630;-83
2023/01/27 09:56:52;;;;;;;13.75;10.23;;;2.60;76.00;;;;;;6182989;23;20217;-84
2023/01/27 09:59:37;;;;;;;14.90;11.48;;;2.60;76.10;;;;;;6220084;23;20756;-83
2023/01/27 10:02:22;;;;;;;13.70;8.13;;;2.60;76.10;;;;;;6184959;23;20179;-83
2023/01/27 10:05:30;;;;;;;14.15;8.63;;;2.60;76.20;;;;;;6183831;23;20161;-84
2023/01/27 10:08:12;;;;;;;21.75;12.90;;;2.60;76.10;;;;;;6183134;23;20173;-84
2023/01/27 10:10:55;;;;;;;14.52;9.20;;;2.60;76.20;;;;;;6183160;23;20215;-83
2023/01/27 10:13:32;;;;;;;15.40;8.93;;;2.60;76.20;;;;;;6183098;23;20187;-86
2023/01/27 10:16:26;;;;;;;11.25;7.93;;;2.60;76.20;;;;;;6220037;23;20679;-84
2023/01/27 10:19:17;;;;;;;14.13;8.88;;;2.60;76.40;;;;;;6220862;23;20207;-84
2023/01/27 10:21:54;;;;;;;10.43;6.80;;;2.60;76.50;;;;;;6220944;23;20165;-84
2023/01/27 10:24:39;;;;;;;15.35;9.25;;;2.70;76.30;;;;;;6220935;23;20164;-86
2023/01/27 10:27:13;;;;;;;13.68;7.25;;;2.70;76.40;;;;;;6221161;23;20535;-83
2023/01/27 10:29:45;;;;;;;12.68;8.40;;;2.70;76.40;;;;;;6184200;23;20226;-83
2023/01/27 10:32:25;;;;;;;19.02;10.38;;;2.70;76.30;;;;;;6219772;23;20203;-84
2023/01/27 10:35:08;;;;;;;14.07;8.88;;;2.70;76.20;;;;;;6185749;23;20679;-83
2023/01/27 10:37:47;;;;;;;11.30;6.97;;;2.70;76.40;;;;;;6183795;23;20188;-84
2023/01/27 10:40:22;;;;;;;12.00;7.60;;;2.80;76.40;;;;;;6195770;23;20200;-86
2023/01/27 10:42:58;;;;;;;15.18;8.05;;;2.80;76.40;;;;;;6183978;23;20637;-84
2023/01/27 10:45:34;;;;;;;11.80;6.15;;;2.80;76.40;;;;;;6185308;23;20262;-84
2023/01/27 10:48:23;;;;;;;13.43;7.70;;;2.90;76.40;;;;;;6222963;23;20689;-84
2023/01/27 10:50:57;;;;;;;10.82;6.53;;;2.90;76.20;;;;;;6184642;23;20541;-83
2023/01/27 10:53:30;;;;;;;13.18;8.60;;;2.80;76.00;;;;;;6182821;23;20168;-83
2023/01/27 10:56:03;;;;;;;13.82;7.70;;;2.90;76.20;;;;;;6181946;23;20908;-82
2023/01/27 10:58:42;;;;;;;12.70;7.30;;;2.90;76.40;;;;;;6216868;23;20280;-80
2023/01/27 11:01:13;;;;;;;18.80;8.77;;;3.00;76.60;;;;;;6180615;23;20602;-80
2023/01/27 11:03:55;;;;;;;15.55;8.38;;;3.10;76.60;;;;;;6179642;23;20171;-79
2023/01/27 11:06:28;;;;;;;12.45;7.28;;;3.20;76.60;;;;;;6217484;23;20175;-80
2023/01/27 11:09:12;;;;;;;13.15;7.53;;;3.30;76.40;;;;;;6219921;23;20184;-81
2023/01/27 11:11:45;;;;;;;12.80;7.80;;;3.40;76.50;;;;;;6219987;23;20164;-80
2023/01/27 11:14:22;;;;;;;9.73;6.80;;;3.50;76.50;;;;;;6184328;23;20203;-81
2023/01/27 11:16:52;;;;;;;11.65;7.20;;;3.60;76.20;;;;;;6220252;23;20183;-81
2023/01/27 11:19:35;;;;;;;12.93;8.27;;;3.70;76.00;;;;;;6222593;23;20206;-80
2023/01/27 11:22:14;;;;;;;14.25;7.53;;;3.70;75.80;;;;;;6182874;23;20219;-81
2023/01/27 11:24:46;;;;;;;18.50;10.57;;;3.70;75.90;;;;;;6220505;23;20157;-80
2023/01/27 11:27:26;;;;;;;12.65;7.03;;;3.70;76.10;;;;;;6183080;23;20174;-79
2023/01/27 11:29:58;;;;;;;11.32;7.03;;;3.80;75.70;;;;;;6219673;23;20196;-78
2023/01/27 11:32:39;;;;;;;15.55;8.27;;;3.80;75.60;;;;;;6220268;23;20409;-81
2023/01/27 11:35:11;;;;;;;15.15;8.07;;;3.80;75.50;;;;;;6186937;23;20207;-80
2023/01/27 11:37:42;;;;;;;12.95;7.10;;;3.70;75.40;;;;;;6185809;23;20195;-81
2023/01/27 11:40:20;;;;;;;24.80;10.95;;;3.70;75.30;;;;;;6182990;23;20204;-85
2023/01/27 11:42:48;;;;;;;17.25;8.57;;;3.70;75.40;;;;;;6181429;23;20180;-85
2023/01/27 11:45:20;;;;;;;10.60;5.85;;;3.70;75.30;;;;;;6220429;23;20789;-86
2023/01/27 11:47:53;;;;;;;10.75;5.90;;;3.70;75.10;;;;;;6185317;23;20164;-84
2023/01/27 11:50:23;;;;;;;14.73;7.63;;;3.60;75.20;;;;;;6186428;23;20658;-80
2023/01/27 11:52:59;;;;;;;10.05;6.35;;;3.60;75.30;;;;;;6185451;23;20180;-79
2023/01/27 11:55:35;;;;;;;9.98;6.53;;;3.70;75.30;;;;;;6222763;23;20171;-79
2023/01/27 11:58:12;;;;;;;19.30;10.20;;;3.70;75.00;;;;;;6221483;23;20179;-80
2023/01/27 12:00:45;;;;;;;18.15;8.40;;;3.60;74.90;;;;;;6221499;23;20198;-79
2023/01/27 12:03:18;;;;;;;11.82;6.22;;;3.60;75.00;;;;;;6220996;23;20164;-80
2023/01/27 12:05:52;;;;;;;12.80;8.25;;;3.60;75.10;;;;;;6220287;23;20156;-80
2023/01/27 12:08:40;;;;;;;12.18;7.18;;;3.60;75.20;;;;;;6221345;23;20172;-80
2023/01/27 12:11:20;;;;;;;25.08;10.40;;;3.70;75.00;;;;;;6185646;23;20271;-80
2023/01/27 12:13:50;;;;;;;18.80;9.85;;;3.70;75.00;;;;;;6183704;23;20175;-79
2023/01/27 12:16:19;;;;;;;10.90;6.35;;;3.70;75.10;;;;;;6219199;23;20173;-81
2023/01/27 12:18:52;;;;;;;9.73;5.05;;;3.70;75.10;;;;;;6218596;23;20184;-81
2023/01/27 12:21:21;;;;;;;7.30;4.30;;;3.80;75.00;;;;;;6182767;23;20168;-82
2023/01/27 12:23:54;;;;;;;16.63;6.95;;;3.80;75.00;;;;;;6184151;23;20182;-80
2023/01/27 12:26:35;;;;;;;12.68;6.82;;;3.80;75.00;;;;;;6184146;23;20204;-81
2023/01/27 12:29:06;;;;;;;6.15;4.00;;;3.90;75.00;;;;;;6217353;23;20191;-83
2023/01/27 12:31:46;;;;;;;13.15;6.53;;;3.90;74.70;;;;;;6216612;23;20160;-81
2023/01/27 12:34:23;;;;;;;14.48;7.13;;;3.90;74.40;;;;;;6214705;23;20194;-80
2023/01/27 12:36:51;;;;;;;15.80;8.98;;;3.80;74.70;;;;;;6175953;23;20238;-81
2023/01/27 12:39:32;;;;;;;15.70;6.35;;;3.90;74.80;;;;;;6214238;23;20243;-80
2023/01/27 12:42:00;;;;;;;13.18;7.63;;;3.90;74.70;;;;;;6213118;23;20165;-82
2023/01/27 12:44:40;;;;;;;16.60;8.02;;;3.90;74.60;;;;;;6214198;23;20186;-82
2023/01/27 12:47:26;;;;;;;22.67;10.20;;;4.00;74.70;;;;;;6214403;23;20157;-82
2023/01/27 12:50:20;;;;;;;12.45;6.40;;;4.00;74.40;;;;;;6177461;23;20199;-83
2023/01/27 12:52:53;;;;;;;7.78;4.22;;;4.00;74.70;;;;;;6212492;23;20251;-83
2023/01/27 12:55:30;;;;;;;12.90;6.85;;;4.00;74.80;;;;;;6176811;23;20243;-85
2023/01/27 12:57:58;;;;;;;10.63;5.60;;;4.10;74.40;;;;;;6212876;23;20195;-80
2023/01/27 13:00:27;;;;;;;10.73;5.70;;;4.10;74.40;;;;;;6177271;23;21082;-80
2023/01/27 13:03:04;;;;;;;11.60;5.28;;;4.20;74.70;;;;;;6175891;23;20176;-82
2023/01/27 13:05:38;;;;;;;9.52;5.25;;;4.20;74.40;;;;;;6213841;23;20891;-84
2023/01/27 13:08:12;;;;;;;6.68;3.67;;;4.20;74.20;;;;;;6212646;23;20169;-80
2023/01/27 13:10:50;;;;;;;13.15;6.63;;;4.20;74.10;;;;;;6214287;23;20204;-82
2023/01/27 13:13:23;;;;;;;21.80;8.25;;;4.20;74.20;;;;;;6177513;23;20176;-86
2023/01/27 13:15:55;;;;;;;39.17;14.45;;;4.20;74.40;;;;;;6177307;23;20174;-85
2023/01/27 13:18:24;;;;;;;14.27;6.90;;;4.20;74.40;;;;;;6216494;23;20207;-83
2023/01/27 13:20:58;;;;;;;11.85;5.90;;;4.30;74.50;;;;;;6179948;23;20200;-82
2023/01/27 13:23:30;;;;;;;5.85;3.55;;;4.40;74.40;;;;;;6216393;23;20801;-81
2023/01/27 13:26:10;;;;;;;14.65;8.65;;;4.40;74.30;;;;;;6215137;23;20164;-83
2023/01/27 13:28:44;;;;;;;9.73;4.93;;;4.40;74.40;;;;;;6177748;23;20173;-83
2023/01/27 13:31:32;;;;;;;19.65;8.48;;;4.50;74.50;;;;;;6178610;23;20532;-81
2023/01/27 13:34:06;;;;;;;10.35;5.10;;;4.50;74.50;;;;;;6214601;23;20226;-80
2023/01/27 13:36:40;;;;;;;17.70;7.70;;;4.60;74.40;;;;;;6178949;23;20656;-80
2023/01/27 13:39:17;;;;;;;9.75;4.57;;;4.70;74.30;;;;;;6219159;23;20208;-84
2023/01/27 13:41:54;;;;;;;34.40;21.60;;;4.70;73.90;;;;;;6177876;23;20180;-83